sensor_id;sensor_type;location;lat;lon;timestamp;pressure;altitude;pressure_sealevel;temperature;humidity
79457;BME280;69494;43.654;3.884;2024-02-21T00:01:16;102371.53;;;6.00;71.76
79457;BME280;69494;43.654;3.884;2024-02-21T00:03:42;102371.59;;;6.02;71.76
79457;BME280;69494;43.654;3.884;2024-02-21T00:06:07;102376.84;;;6.05;71.91
79457;BME280;69494;43.654;3.884;2024-02-21T00:08:32;102366.25;;;5.96;71.87
79457;BME280;69494;43.654;3.884;2024-02-21T00:10:58;102363.34;;;5.88;72.11
79457;BME280;69494;43.654;3.884;2024-02-21T00:13:23;102363.28;;;5.85;72.24
79457;BME280;69494;43.654;3.884;2024-02-21T00:15:49;102354.69;;;5.86;72.06
79457;BME280;69494;43.654;3.884;2024-02-21T00:18:15;102352.06;;;5.84;72.22
79457;BME280;69494;43.654;3.884;2024-02-21T00:20:40;102349.25;;;5.77;72.60
79457;BME280;69494;43.654;3.884;2024-02-21T00:23:06;102350.97;;;5.78;72.36
79457;BME280;69494;43.654;3.884;2024-02-21T00:25:31;102346.66;;;5.77;72.39
79457;BME280;69494;43.654;3.884;2024-02-21T00:27:56;102357.84;;;5.77;72.76
79457;BME280;69494;43.654;3.884;2024-02-21T00:30:22;102363.69;;;5.71;72.94
79457;BME280;69494;43.654;3.884;2024-02-21T00:32:47;102363.50;;;5.67;72.93
79457;BME280;69494;43.654;3.884;2024-02-21T00:35:13;102371.91;;;5.61;72.75
79457;BME280;69494;43.654;3.884;2024-02-21T00:37:39;102369.25;;;5.58;72.93
79457;BME280;69494;43.654;3.884;2024-02-21T00:40:06;102367.38;;;5.54;73.11
79457;BME280;69494;43.654;3.884;2024-02-21T00:42:31;102366.25;;;5.46;73.08
79457;BME280;69494;43.654;3.884;2024-02-21T00:44:58;102356.22;;;5.29;73.37
79457;BME280;69494;43.654;3.884;2024-02-21T00:47:23;102347.28;;;5.20;74.07
79457;BME280;69494;43.654;3.884;2024-02-21T00:49:48;102346.25;;;5.14;74.58
79457;BME280;69494;43.654;3.884;2024-02-21T00:52:14;102351.56;;;5.19;74.46
79457;BME280;69494;43.654;3.884;2024-02-21T00:54:39;102355.19;;;5.24;74.42
79457;BME280;69494;43.654;3.884;2024-02-21T00:57:04;102349.19;;;5.25;74.24
79457;BME280;69494;43.654;3.884;2024-02-21T00:59:30;102344.81;;;5.23;74.38
79457;BME280;69494;43.654;3.884;2024-02-21T01:01:55;102354.16;;;5.19;74.50
79457;BME280;69494;43.654;3.884;2024-02-21T01:04:20;102345.25;;;5.11;74.30
79457;BME280;69494;43.654;3.884;2024-02-21T01:06:46;102333.22;;;5.10;74.32
79457;BME280;69494;43.654;3.884;2024-02-21T01:09:11;102330.91;;;5.18;74.05
79457;BME280;69494;43.654;3.884;2024-02-21T01:11:37;102325.50;;;5.61;71.67
79457;BME280;69494;43.654;3.884;2024-02-21T01:14:02;102319.53;;;6.14;69.04
79457;BME280;69494;43.654;3.884;2024-02-21T01:16:28;102315.78;;;6.61;66.54
79457;BME280;69494;43.654;3.884;2024-02-21T01:18:53;102308.28;;;7.01;64.56
79457;BME280;69494;43.654;3.884;2024-02-21T01:21:18;102305.56;;;7.27;63.40
79457;BME280;69494;43.654;3.884;2024-02-21T01:23:44;102302.38;;;7.37;62.67
79457;BME280;69494;43.654;3.884;2024-02-21T01:26:09;102294.97;;;7.51;61.42
79457;BME280;69494;43.654;3.884;2024-02-21T01:28:38;102297.91;;;7.64;60.92
79457;BME280;69494;43.654;3.884;2024-02-21T01:31:03;102305.78;;;7.71;60.73
79457;BME280;69494;43.654;3.884;2024-02-21T01:33:28;102298.16;;;7.75;60.24
79457;BME280;69494;43.654;3.884;2024-02-21T01:36:00;102295.81;;;7.86;59.11
79457;BME280;69494;43.654;3.884;2024-02-21T01:38:25;102277.84;;;7.91;58.95
79457;BME280;69494;43.654;3.884;2024-02-21T01:40:50;102283.31;;;8.03;58.42
79457;BME280;69494;43.654;3.884;2024-02-21T01:43:17;102288.09;;;7.88;58.74
79457;BME280;69494;43.654;3.884;2024-02-21T01:45:55;102295.84;;;7.51;60.82
79457;BME280;69494;43.654;3.884;2024-02-21T01:48:24;102292.78;;;7.01;63.00
79457;BME280;69494;43.654;3.884;2024-02-21T01:50:50;102294.34;;;6.64;64.07
79457;BME280;69494;43.654;3.884;2024-02-21T01:53:20;102296.31;;;6.42;65.09
79457;BME280;69494;43.654;3.884;2024-02-21T01:55:46;102286.44;;;6.29;66.06
79457;BME280;69494;43.654;3.884;2024-02-21T01:58:16;102285.47;;;6.25;66.43
79457;BME280;69494;43.654;3.884;2024-02-21T02:00:45;102285.38;;;6.22;66.84
79457;BME280;69494;43.654;3.884;2024-02-21T02:03:12;102281.16;;;6.26;66.47
79457;BME280;69494;43.654;3.884;2024-02-21T02:05:49;102276.16;;;6.30;66.37
79457;BME280;69494;43.654;3.884;2024-02-21T02:08:15;102279.72;;;6.34;66.18
79457;BME280;69494;43.654;3.884;2024-02-21T02:10:41;102274.56;;;6.34;65.71
79457;BME280;69494;43.654;3.884;2024-02-21T02:13:07;102265.94;;;6.34;66.09
79457;BME280;69494;43.654;3.884;2024-02-21T02:15:46;102266.81;;;6.34;66.17
79457;BME280;69494;43.654;3.884;2024-02-21T02:18:12;102258.16;;;6.32;66.12
79457;BME280;69494;43.654;3.884;2024-02-21T02:20:39;102256.44;;;6.33;66.36
79457;BME280;69494;43.654;3.884;2024-02-21T02:25:46;102255.75;;;6.38;66.04
79457;BME280;69494;43.654;3.884;2024-02-21T02:28:14;102248.91;;;6.39;65.98
79457;BME280;69494;43.654;3.884;2024-02-21T02:30:40;102237.66;;;6.37;66.81
79457;BME280;69494;43.654;3.884;2024-02-21T02:33:05;102233.09;;;6.28;67.03
79457;BME280;69494;43.654;3.884;2024-02-21T02:35:32;102235.38;;;6.17;67.64
79457;BME280;69494;43.654;3.884;2024-02-21T02:37:58;102233.44;;;6.11;68.08
79457;BME280;69494;43.654;3.884;2024-02-21T02:40:23;102226.34;;;6.04;68.48
79457;BME280;69494;43.654;3.884;2024-02-21T02:42:49;102228.75;;;5.98;68.86
79457;BME280;69494;43.654;3.884;2024-02-21T02:45:16;102225.25;;;5.96;68.97
79457;BME280;69494;43.654;3.884;2024-02-21T02:47:41;102228.00;;;6.02;68.47
79457;BME280;69494;43.654;3.884;2024-02-21T02:50:07;102220.38;;;6.05;68.38
79457;BME280;69494;43.654;3.884;2024-02-21T02:52:33;102207.53;;;6.07;68.14
79457;BME280;69494;43.654;3.884;2024-02-21T02:54:58;102200.56;;;6.04;68.25
79457;BME280;69494;43.654;3.884;2024-02-21T02:57:24;102206.56;;;6.03;68.22
79457;BME280;69494;43.654;3.884;2024-02-21T02:59:50;102206.50;;;6.02;68.51
79457;BME280;69494;43.654;3.884;2024-02-21T03:02:16;102210.75;;;6.00;68.28
79457;BME280;69494;43.654;3.884;2024-02-21T03:04:42;102228.50;;;5.90;68.52
79457;BME280;69494;43.654;3.884;2024-02-21T03:07:07;102229.78;;;5.76;69.12
79457;BME280;69494;43.654;3.884;2024-02-21T03:09:33;102238.91;;;5.66;69.17
79457;BME280;69494;43.654;3.884;2024-02-21T03:11:58;102235.25;;;5.60;69.43
79457;BME280;69494;43.654;3.884;2024-02-21T03:14:30;102228.75;;;5.44;69.74
79457;BME280;69494;43.654;3.884;2024-02-21T03:16:56;102215.25;;;5.51;70.08
79457;BME280;69494;43.654;3.884;2024-02-21T03:19:22;102210.22;;;5.56;69.81
79457;BME280;69494;43.654;3.884;2024-02-21T03:21:48;102199.16;;;5.60;69.76
79457;BME280;69494;43.654;3.884;2024-02-21T03:24:15;102201.09;;;5.65;70.20
79457;BME280;69494;43.654;3.884;2024-02-21T03:26:40;102202.81;;;5.66;70.45
79457;BME280;69494;43.654;3.884;2024-02-21T03:29:05;102202.81;;;5.66;70.47
79457;BME280;69494;43.654;3.884;2024-02-21T03:31:31;102210.59;;;5.68;70.08
79457;BME280;69494;43.654;3.884;2024-02-21T03:33:56;102210.66;;;5.69;70.33
79457;BME280;69494;43.654;3.884;2024-02-21T03:36:22;102217.53;;;5.70;70.33
79457;BME280;69494;43.654;3.884;2024-02-21T03:38:47;102203.78;;;5.70;70.08
79457;BME280;69494;43.654;3.884;2024-02-21T03:41:13;102198.69;;;5.71;70.28
79457;BME280;69494;43.654;3.884;2024-02-21T03:43:38;102205.50;;;5.69;69.78
79457;BME280;69494;43.654;3.884;2024-02-21T03:46:04;102199.47;;;5.69;69.95
79457;BME280;69494;43.654;3.884;2024-02-21T03:48:29;102209.69;;;5.66;70.58
79457;BME280;69494;43.654;3.884;2024-02-21T03:50:55;102215.75;;;5.68;70.42
79457;BME280;69494;43.654;3.884;2024-02-21T03:53:20;102217.53;;;5.69;70.32
79457;BME280;69494;43.654;3.884;2024-02-21T03:55:45;102214.91;;;5.67;70.48
79457;BME280;69494;43.654;3.884;2024-02-21T03:58:11;102217.41;;;5.66;70.57
79457;BME280;69494;43.654;3.884;2024-02-21T04:00:36;102217.31;;;5.63;70.53
79457;BME280;69494;43.654;3.884;2024-02-21T04:03:02;102211.97;;;5.57;70.78
79457;BME280;69494;43.654;3.884;2024-02-21T04:05:28;102218.69;;;5.51;71.06
79457;BME280;69494;43.654;3.884;2024-02-21T04:07:53;102212.50;;;5.46;71.24
79457;BME280;69494;43.654;3.884;2024-02-21T04:10:19;102221.03;;;5.44;71.59
79457;BME280;69494;43.654;3.884;2024-02-21T04:12:44;102211.47;;;5.41;71.66
79457;BME280;69494;43.654;3.884;2024-02-21T04:15:09;102210.72;;;5.45;71.77
79457;BME280;69494;43.654;3.884;2024-02-21T04:17:36;102207.28;;;5.45;72.26
79457;BME280;69494;43.654;3.884;2024-02-21T04:20:05;102205.56;;;5.45;71.91
79457;BME280;69494;43.654;3.884;2024-02-21T04:22:33;102215.13;;;5.48;71.67
79457;BME280;69494;43.654;3.884;2024-02-21T04:25:00;102204.03;;;5.50;71.61
79457;BME280;69494;43.654;3.884;2024-02-21T04:27:26;102205.91;;;5.54;71.03
79457;BME280;69494;43.654;3.884;2024-02-21T04:29:52;102207.69;;;5.57;70.59
79457;BME280;69494;43.654;3.884;2024-02-21T04:32:18;102213.72;;;5.58;70.14
79457;BME280;69494;43.654;3.884;2024-02-21T04:34:43;102212.06;;;5.60;70.47
79457;BME280;69494;43.654;3.884;2024-02-21T04:37:08;102230.06;;;5.58;70.50
79457;BME280;69494;43.654;3.884;2024-02-21T04:39:34;102212.38;;;5.43;71.42
79457;BME280;69494;43.654;3.884;2024-02-21T04:41:59;102218.97;;;5.33;71.50
79457;BME280;69494;43.654;3.884;2024-02-21T04:44:24;102218.66;;;5.24;72.19
79457;BME280;69494;43.654;3.884;2024-02-21T04:46:50;102207.31;;;5.19;72.14
79457;BME280;69494;43.654;3.884;2024-02-21T04:49:15;102196.97;;;5.18;72.29
79457;BME280;69494;43.654;3.884;2024-02-21T04:51:41;102209.72;;;5.14;72.64
79457;BME280;69494;43.654;3.884;2024-02-21T04:54:06;102213.16;;;5.15;72.60
79457;BME280;69494;43.654;3.884;2024-02-21T04:56:31;102220.09;;;5.16;72.31
79457;BME280;69494;43.654;3.884;2024-02-21T04:58:57;102220.03;;;5.14;72.50
79457;BME280;69494;43.654;3.884;2024-02-21T05:01:22;102209.78;;;5.16;72.87
79457;BME280;69494;43.654;3.884;2024-02-21T05:03:47;102188.25;;;5.14;72.75
79457;BME280;69494;43.654;3.884;2024-02-21T05:06:13;102182.19;;;5.12;72.82
79457;BME280;69494;43.654;3.884;2024-02-21T05:08:38;102189.00;;;5.11;73.09
79457;BME280;69494;43.654;3.884;2024-02-21T05:11:03;102188.31;;;5.15;72.87
79457;BME280;69494;43.654;3.884;2024-02-21T05:13:29;102190.09;;;5.18;73.06
79457;BME280;69494;43.654;3.884;2024-02-21T05:15:54;102190.09;;;5.18;72.79
79457;BME280;69494;43.654;3.884;2024-02-21T05:18:20;102187.47;;;5.16;72.39
79457;BME280;69494;43.654;3.884;2024-02-21T05:20:45;102185.75;;;5.15;73.10
79457;BME280;69494;43.654;3.884;2024-02-21T05:23:11;102184.03;;;5.16;72.91
79457;BME280;69494;43.654;3.884;2024-02-21T05:25:37;102172.91;;;5.17;73.03
79457;BME280;69494;43.654;3.884;2024-02-21T05:28:02;102173.84;;;5.19;72.68
79457;BME280;69494;43.654;3.884;2024-02-21T05:30:28;102167.75;;;5.17;73.12
79457;BME280;69494;43.654;3.884;2024-02-21T05:32:54;102166.97;;;5.20;72.72
79457;BME280;69494;43.654;3.884;2024-02-21T05:35:19;102155.66;;;5.14;72.98
79457;BME280;69494;43.654;3.884;2024-02-21T05:37:49;102159.09;;;5.15;73.24
79457;BME280;69494;43.654;3.884;2024-02-21T05:40:17;102166.38;;;5.01;73.27
79457;BME280;69494;43.654;3.884;2024-02-21T05:42:43;102167.75;;;4.91;74.37
79457;BME280;69494;43.654;3.884;2024-02-21T05:45:08;102164.94;;;4.84;74.70
79457;BME280;69494;43.654;3.884;2024-02-21T05:47:34;102147.06;;;4.88;74.95
79457;BME280;69494;43.654;3.884;2024-02-21T05:49:59;102150.66;;;4.93;75.27
79457;BME280;69494;43.654;3.884;2024-02-21T05:52:25;102149.22;;;5.02;74.45
79457;BME280;69494;43.654;3.884;2024-02-21T05:54:50;102146.88;;;5.09;74.63
79457;BME280;69494;43.654;3.884;2024-02-21T05:57:17;102150.50;;;5.14;73.72
79457;BME280;69494;43.654;3.884;2024-02-21T05:59:43;102143.78;;;5.20;73.64
79457;BME280;69494;43.654;3.884;2024-02-21T06:02:09;102144.75;;;5.23;73.05
79457;BME280;69494;43.654;3.884;2024-02-21T06:04:34;102150.94;;;5.28;72.91
79457;BME280;69494;43.654;3.884;2024-02-21T06:07:00;102138.16;;;5.31;73.65
79457;BME280;69494;43.654;3.884;2024-02-21T06:09:25;102140.69;;;5.30;73.55
79457;BME280;69494;43.654;3.884;2024-02-21T06:11:51;102149.34;;;5.32;73.40
79457;BME280;69494;43.654;3.884;2024-02-21T06:14:16;102149.44;;;5.35;73.59
79457;BME280;69494;43.654;3.884;2024-02-21T06:16:43;102148.59;;;5.36;72.86
79457;BME280;69494;43.654;3.884;2024-02-21T06:19:09;102150.31;;;5.35;73.22
79457;BME280;69494;43.654;3.884;2024-02-21T06:21:34;102153.72;;;5.34;73.23
79457;BME280;69494;43.654;3.884;2024-02-21T06:24:00;102156.25;;;5.33;74.15
79457;BME280;69494;43.654;3.884;2024-02-21T06:26:25;102145.84;;;5.30;74.15
79457;BME280;69494;43.654;3.884;2024-02-21T06:28:51;102153.63;;;5.31;73.74
79457;BME280;69494;43.654;3.884;2024-02-21T06:31:16;102162.13;;;5.29;73.89
79457;BME280;69494;43.654;3.884;2024-02-21T06:33:42;102163.72;;;5.25;73.96
79457;BME280;69494;43.654;3.884;2024-02-21T06:36:08;102156.66;;;5.20;74.44
79457;BME280;69494;43.654;3.884;2024-02-21T06:38:33;102173.09;;;5.23;74.69
79457;BME280;69494;43.654;3.884;2024-02-21T06:41:02;102163.66;;;5.24;74.56
79457;BME280;69494;43.654;3.884;2024-02-21T06:43:28;102162.91;;;5.26;74.30
79457;BME280;69494;43.654;3.884;2024-02-21T06:45:53;102157.88;;;5.31;73.88
79457;BME280;69494;43.654;3.884;2024-02-21T06:48:20;102166.59;;;5.34;74.19
79457;BME280;69494;43.654;3.884;2024-02-21T06:50:45;102167.44;;;5.33;73.90
79457;BME280;69494;43.654;3.884;2024-02-21T06:53:11;102168.16;;;5.29;74.06
79457;BME280;69494;43.654;3.884;2024-02-21T06:55:37;102171.72;;;5.33;74.36
79457;BME280;69494;43.654;3.884;2024-02-21T06:58:02;102169.31;;;5.39;74.64
79457;BME280;69494;43.654;3.884;2024-02-21T07:00:30;102158.22;;;5.42;73.84
79457;BME280;69494;43.654;3.884;2024-02-21T07:02:56;102160.16;;;5.47;74.19
79457;BME280;69494;43.654;3.884;2024-02-21T07:05:21;102161.13;;;5.51;74.30
79457;BME280;69494;43.654;3.884;2024-02-21T07:07:47;102164.69;;;5.56;74.27
79457;BME280;69494;43.654;3.884;2024-02-21T07:10:12;102165.63;;;5.58;74.10
79457;BME280;69494;43.654;3.884;2024-02-21T07:12:38;102170.88;;;5.61;73.85
79457;BME280;69494;43.654;3.884;2024-02-21T07:15:07;102172.69;;;5.64;73.57
79457;BME280;69494;43.654;3.884;2024-02-21T07:17:32;102179.66;;;5.68;73.43
79457;BME280;69494;43.654;3.884;2024-02-21T07:19:58;102170.38;;;5.73;73.22
79457;BME280;69494;43.654;3.884;2024-02-21T07:22:24;102179.19;;;5.80;73.29
79457;BME280;69494;43.654;3.884;2024-02-21T07:24:49;102178.44;;;5.84;73.66
79457;BME280;69494;43.654;3.884;2024-02-21T07:27:15;102181.94;;;5.86;73.14
79457;BME280;69494;43.654;3.884;2024-02-21T07:29:41;102192.41;;;5.90;73.93
79457;BME280;69494;43.654;3.884;2024-02-21T07:32:06;102185.63;;;5.94;73.67
79457;BME280;69494;43.654;3.884;2024-02-21T07:34:31;102195.22;;;5.98;73.78
79457;BME280;69494;43.654;3.884;2024-02-21T07:36:57;102190.19;;;6.01;73.21
79457;BME280;69494;43.654;3.884;2024-02-21T07:39:22;102185.09;;;6.04;73.35
79457;BME280;69494;43.654;3.884;2024-02-21T07:41:48;102189.44;;;6.05;73.00
79457;BME280;69494;43.654;3.884;2024-02-21T07:44:14;102197.22;;;6.07;73.02
79457;BME280;69494;43.654;3.884;2024-02-21T07:46:40;102200.75;;;6.10;73.17
79457;BME280;69494;43.654;3.884;2024-02-21T07:49:05;102199.25;;;6.19;73.46
79457;BME280;69494;43.654;3.884;2024-02-21T07:51:31;102204.72;;;6.28;73.76
79457;BME280;69494;43.654;3.884;2024-02-21T07:53:56;102204.25;;;6.43;73.45
79457;BME280;69494;43.654;3.884;2024-02-21T07:56:22;102206.38;;;6.58;72.73
79457;BME280;69494;43.654;3.884;2024-02-21T07:58:47;102206.81;;;6.73;72.20
79457;BME280;69494;43.654;3.884;2024-02-21T08:01:21;102201.91;;;6.82;72.03
79457;BME280;69494;43.654;3.884;2024-02-21T08:03:47;102203.84;;;6.91;71.80
79457;BME280;69494;43.654;3.884;2024-02-21T08:06:13;102204.94;;;7.01;71.18
79457;BME280;69494;43.654;3.884;2024-02-21T08:08:39;102199.16;;;7.10;70.96
79457;BME280;69494;43.654;3.884;2024-02-21T08:11:04;102208.03;;;7.19;70.75
79457;BME280;69494;43.654;3.884;2024-02-21T08:13:30;102206.50;;;7.28;70.60
79457;BME280;69494;43.654;3.884;2024-02-21T08:15:55;102207.66;;;7.39;70.44
79457;BME280;69494;43.654;3.884;2024-02-21T08:18:22;102210.44;;;7.48;70.05
79457;BME280;69494;43.654;3.884;2024-02-21T08:20:47;102202.91;;;7.57;69.80
79457;BME280;69494;43.654;3.884;2024-02-21T08:23:16;102202.25;;;7.66;69.02
79457;BME280;69494;43.654;3.884;2024-02-21T08:25:41;102199.88;;;7.75;68.69
79457;BME280;69494;43.654;3.884;2024-02-21T08:28:06;102210.56;;;7.91;68.42
79457;BME280;69494;43.654;3.884;2024-02-21T08:30:33;102218.69;;;8.08;67.92
79457;BME280;69494;43.654;3.884;2024-02-21T08:32:59;102226.88;;;8.28;67.65
79457;BME280;69494;43.654;3.884;2024-02-21T08:35:24;102214.41;;;8.49;67.39
79457;BME280;69494;43.654;3.884;2024-02-21T08:37:50;102205.28;;;8.68;66.98
79457;BME280;69494;43.654;3.884;2024-02-21T08:40:15;102216.91;;;8.90;65.80
79457;BME280;69494;43.654;3.884;2024-02-21T08:42:44;102218.19;;;9.12;65.23
79457;BME280;69494;43.654;3.884;2024-02-21T08:45:10;102216.00;;;9.39;63.91
79457;BME280;69494;43.654;3.884;2024-02-21T08:47:36;102217.28;;;9.64;62.49
79457;BME280;69494;43.654;3.884;2024-02-21T08:50:02;102222.88;;;9.91;60.70
79457;BME280;69494;43.654;3.884;2024-02-21T08:52:27;102209.38;;;10.17;58.47
79457;BME280;69494;43.654;3.884;2024-02-21T08:54:53;102203.69;;;10.43;56.75
79457;BME280;69494;43.654;3.884;2024-02-21T08:57:19;102204.75;;;10.63;56.22
79457;BME280;69494;43.654;3.884;2024-02-21T08:59:44;102208.38;;;10.78;55.72
79457;BME280;69494;43.654;3.884;2024-02-21T09:02:10;102218.03;;;10.90;55.92
79457;BME280;69494;43.654;3.884;2024-02-21T09:04:35;102214.63;;;10.95;55.24
79457;BME280;69494;43.654;3.884;2024-02-21T09:07:01;102209.50;;;11.03;55.25
79457;BME280;69494;43.654;3.884;2024-02-21T09:09:26;102211.25;;;11.09;54.88
79457;BME280;69494;43.654;3.884;2024-02-21T09:11:53;102205.22;;;11.10;54.07
79457;BME280;69494;43.654;3.884;2024-02-21T09:14:19;102194.88;;;11.17;53.74
79457;BME280;69494;43.654;3.884;2024-02-21T09:16:44;102186.31;;;11.28;52.78
79457;BME280;69494;43.654;3.884;2024-02-21T09:19:09;102201.22;;;11.53;53.12
79457;BME280;69494;43.654;3.884;2024-02-21T09:21:39;102190.09;;;11.76;53.11
79457;BME280;69494;43.654;3.884;2024-02-21T09:24:05;102175.56;;;12.06;52.72
79457;BME280;69494;43.654;3.884;2024-02-21T09:26:31;102163.47;;;12.35;52.48
79457;BME280;69494;43.654;3.884;2024-02-21T09:28:56;102172.25;;;12.56;51.45
79457;BME280;69494;43.654;3.884;2024-02-21T09:31:22;102170.53;;;12.80;50.40
79457;BME280;69494;43.654;3.884;2024-02-21T09:33:47;102163.63;;;12.97;48.71
79457;BME280;69494;43.654;3.884;2024-02-21T09:36:12;102172.28;;;13.28;49.97
79457;BME280;69494;43.654;3.884;2024-02-21T09:38:39;102169.63;;;13.73;48.64
79457;BME280;69494;43.654;3.884;2024-02-21T09:41:18;102163.44;;;14.09;47.16
79457;BME280;69494;43.654;3.884;2024-02-21T09:43:49;102172.03;;;14.33;47.32
79457;BME280;69494;43.654;3.884;2024-02-21T09:46:17;102165.00;;;14.43;46.06
79457;BME280;69494;43.654;3.884;2024-02-21T09:49:11;102169.44;;;14.33;45.44
79457;BME280;69494;43.654;3.884;2024-02-21T09:51:39;102168.56;;;14.31;46.45
79457;BME280;69494;43.654;3.884;2024-02-21T09:54:07;102160.63;;;14.51;45.66
79457;BME280;69494;43.654;3.884;2024-02-21T09:56:32;102164.75;;;14.89;45.05
79457;BME280;69494;43.654;3.884;2024-02-21T09:58:58;102169.78;;;15.14;45.05
79457;BME280;69494;43.654;3.884;2024-02-21T10:01:24;102172.47;;;15.06;43.95
79457;BME280;69494;43.654;3.884;2024-02-21T10:03:49;102176.81;;;15.07;45.93
79457;BME280;69494;43.654;3.884;2024-02-21T10:06:15;102177.66;;;15.09;44.99
79457;BME280;69494;43.654;3.884;2024-02-21T10:08:40;102182.94;;;15.06;44.08
79457;BME280;69494;43.654;3.884;2024-02-21T10:11:05;102194.28;;;15.00;44.04
79457;BME280;69494;43.654;3.884;2024-02-21T10:13:34;102183.97;;;14.86;44.63
79457;BME280;69494;43.654;3.884;2024-02-21T10:16:03;102180.56;;;14.74;45.39
79457;BME280;69494;43.654;3.884;2024-02-21T10:18:28;102181.50;;;14.62;44.12
79457;BME280;69494;43.654;3.884;2024-02-21T10:21:07;102168.47;;;14.45;45.10
79457;BME280;69494;43.654;3.884;2024-02-21T10:26:11;102158.88;;;14.50;44.05
79457;BME280;69494;43.654;3.884;2024-02-21T10:28:40;102157.09;;;14.54;44.68
79457;BME280;69494;43.654;3.884;2024-02-21T10:31:08;102162.28;;;14.69;45.67
79457;BME280;69494;43.654;3.884;2024-02-21T10:33:34;102175.28;;;14.77;45.83
79457;BME280;69494;43.654;3.884;2024-02-21T10:36:07;102178.66;;;14.94;44.79
79457;BME280;69494;43.654;3.884;2024-02-21T10:38:33;102170.78;;;14.99;44.07
79457;BME280;69494;43.654;3.884;2024-02-21T10:40:59;102156.72;;;15.12;44.69
79457;BME280;69494;43.654;3.884;2024-02-21T10:43:30;102143.66;;;15.07;43.77
79457;BME280;69494;43.654;3.884;2024-02-21T10:46:00;102142.59;;;15.27;43.84
79457;BME280;69494;43.654;3.884;2024-02-21T10:48:36;102136.84;;;15.81;43.11
79457;BME280;69494;43.654;3.884;2024-02-21T10:51:16;102142.06;;;16.51;41.47
79457;BME280;69494;43.654;3.884;2024-02-21T10:56:31;102156.81;;;16.58;42.14
79457;BME280;69494;43.654;3.884;2024-02-21T10:59:01;102156.47;;;16.19;42.50
79457;BME280;69494;43.654;3.884;2024-02-21T11:01:28;102154.97;;;15.98;42.59
79457;BME280;69494;43.654;3.884;2024-02-21T11:03:56;102152.41;;;15.93;43.23
79457;BME280;69494;43.654;3.884;2024-02-21T11:06:22;102154.13;;;15.96;43.27
79457;BME280;69494;43.654;3.884;2024-02-21T11:09:02;102151.28;;;16.14;42.26
79457;BME280;69494;43.654;3.884;2024-02-21T11:11:29;102146.81;;;16.21;42.57
79457;BME280;69494;43.654;3.884;2024-02-21T11:14:08;102154.03;;;16.67;41.88
79457;BME280;69494;43.654;3.884;2024-02-21T11:16:38;102137.97;;;16.90;40.62
79457;BME280;69494;43.654;3.884;2024-02-21T11:19:09;102131.56;;;17.07;40.50
79457;BME280;69494;43.654;3.884;2024-02-21T11:21:37;102131.13;;;17.31;40.28
79457;BME280;69494;43.654;3.884;2024-02-21T11:24:05;102123.75;;;17.50;40.06
79457;BME280;69494;43.654;3.884;2024-02-21T11:26:32;102125.88;;;17.77;39.57
79457;BME280;69494;43.654;3.884;2024-02-21T11:28:59;102130.63;;;18.03;39.68
79457;BME280;69494;43.654;3.884;2024-02-21T11:31:44;102127.47;;;17.84;38.99
79457;BME280;69494;43.654;3.884;2024-02-21T11:34:13;102114.75;;;18.07;39.12
79457;BME280;69494;43.654;3.884;2024-02-21T11:36:50;102108.22;;;18.25;38.86
79457;BME280;69494;43.654;3.884;2024-02-21T11:39:20;102112.69;;;18.20;38.14
79457;BME280;69494;43.654;3.884;2024-02-21T11:41:47;102096.03;;;18.59;37.89
79457;BME280;69494;43.654;3.884;2024-02-21T11:44:13;102104.94;;;18.91;38.19
79457;BME280;69494;43.654;3.884;2024-02-21T11:46:38;102102.66;;;18.75;38.45
79457;BME280;69494;43.654;3.884;2024-02-21T11:49:04;102094.53;;;18.48;38.86
79457;BME280;69494;43.654;3.884;2024-02-21T11:51:30;102090.91;;;17.73;40.38
79457;BME280;69494;43.654;3.884;2024-02-21T11:53:55;102082.34;;;17.18;41.72
79457;BME280;69494;43.654;3.884;2024-02-21T11:56:20;102074.72;;;17.04;42.38
79457;BME280;69494;43.654;3.884;2024-02-21T11:58:47;102067.63;;;17.09;42.40
79457;BME280;69494;43.654;3.884;2024-02-21T12:01:13;102060.13;;;17.34;41.28
79457;BME280;69494;43.654;3.884;2024-02-21T12:03:39;102057.63;;;17.72;41.82
79457;BME280;69494;43.654;3.884;2024-02-21T12:06:06;102049.03;;;18.06;40.97
79457;BME280;69494;43.654;3.884;2024-02-21T12:08:44;102049.22;;;18.36;40.65
79457;BME280;69494;43.654;3.884;2024-02-21T12:11:20;102044.50;;;18.50;39.87
79457;BME280;69494;43.654;3.884;2024-02-21T12:13:46;102047.72;;;18.61;39.47
79457;BME280;69494;43.654;3.884;2024-02-21T12:16:15;102040.44;;;18.73;40.32
79457;BME280;69494;43.654;3.884;2024-02-21T12:18:41;102036.09;;;19.04;39.69
79457;BME280;69494;43.654;3.884;2024-02-21T12:21:07;102031.28;;;19.20;39.21
79457;BME280;69494;43.654;3.884;2024-02-21T12:23:32;102020.84;;;19.47;39.06
79457;BME280;69494;43.654;3.884;2024-02-21T12:25:59;102024.88;;;19.60;37.81
79457;BME280;69494;43.654;3.884;2024-02-21T12:28:24;102017.00;;;19.59;37.89
79457;BME280;69494;43.654;3.884;2024-02-21T12:30:49;102014.31;;;19.90;38.48
79457;BME280;69494;43.654;3.884;2024-02-21T12:33:15;102006.50;;;20.15;36.72
79457;BME280;69494;43.654;3.884;2024-02-21T12:35:40;102003.56;;;19.98;36.77
79457;BME280;69494;43.654;3.884;2024-02-21T12:38:06;101999.00;;;19.43;38.34
79457;BME280;69494;43.654;3.884;2024-02-21T12:40:31;101999.81;;;19.77;37.71
79457;BME280;69494;43.654;3.884;2024-02-21T12:42:59;101983.63;;;19.58;37.25
79457;BME280;69494;43.654;3.884;2024-02-21T12:45:25;101984.28;;;19.66;37.76
79457;BME280;69494;43.654;3.884;2024-02-21T12:47:50;101978.03;;;19.69;37.64
79457;BME280;69494;43.654;3.884;2024-02-21T12:50:16;101966.25;;;19.82;37.71
79457;BME280;69494;43.654;3.884;2024-02-21T12:52:41;101958.66;;;19.71;37.17
79457;BME280;69494;43.654;3.884;2024-02-21T12:55:07;101961.41;;;19.37;37.83
79457;BME280;69494;43.654;3.884;2024-02-21T12:57:35;101947.28;;;19.10;38.58
79457;BME280;69494;43.654;3.884;2024-02-21T13:00:00;101944.47;;;18.86;39.36
79457;BME280;69494;43.654;3.884;2024-02-21T13:02:26;101948.38;;;18.70;40.62